createdAt,value
2019-02-19T00:01:51.207Z,207.93
2019-02-19T00:06:54.625Z,49.37
2019-02-19T00:11:57.911Z,79.27
2019-02-19T00:17:01.607Z,51.30
2019-02-19T00:22:05.593Z,132.30
2019-02-19T00:27:08.914Z,174.33
2019-02-19T00:32:12.217Z,256.03
2019-02-19T00:37:15.913Z,338.07
2019-02-19T00:42:19.211Z,69.90
2019-02-19T00:47:22.917Z,85.10
2019-02-19T00:52:26.465Z,175.57
2019-02-19T00:57:30.165Z,222.33
2019-02-19T01:02:33.629Z,343.47
2019-02-19T01:07:37.706Z,376.77
2019-02-19T01:12:41.012Z,303.60
2019-02-19T01:17:44.265Z,294.03
2019-02-19T01:22:47.543Z,274.43
2019-02-19T01:27:51.507Z,317.07
2019-02-19T01:32:55.199Z,316.23
2019-02-19T01:37:58.491Z,240.47
2019-02-19T01:43:01.758Z,187.53
2019-02-19T01:48:05.310Z,336.50
2019-02-19T01:53:08.895Z,271.97
2019-02-19T01:58:12.168Z,401.33
2019-02-19T02:03:16.038Z,468.20
2019-02-19T02:08:19.997Z,377.10
2019-02-19T02:13:23.533Z,407.20
2019-02-19T02:18:27.466Z,345.17
2019-02-19T02:23:31.150Z,342.97
2019-02-19T02:28:34.671Z,384.63
2019-02-19T02:33:38.204Z,412.83
2019-02-19T02:38:41.465Z,428.93
2019-02-19T02:43:45.343Z,329.33
2019-02-19T02:48:48.605Z,292.23
2019-02-19T02:53:51.869Z,355.90
2019-02-19T02:58:55.558Z,365.37
2019-02-19T03:03:58.942Z,311.53
2019-02-19T03:09:02.210Z,312.73
2019-02-19T03:14:05.920Z,357.67
2019-02-19T03:19:09.208Z,404.27
2019-02-19T03:24:12.510Z,284.00
2019-02-19T03:29:16.210Z,113.90
2019-02-19T03:34:20.010Z,164.60
2019-02-19T03:39:23.370Z,144.37
2019-02-19T03:44:27.098Z,190.60
2019-02-19T03:49:30.798Z,195.37
2019-02-19T03:54:34.355Z,124.70
2019-02-19T03:59:38.174Z,195.67
2019-02-19T04:04:41.827Z,120.60
2019-02-19T04:09:45.643Z,101.97
2019-02-19T04:14:48.935Z,88.87
2019-02-19T04:19:52.247Z,90.30
2019-02-19T04:24:55.553Z,86.37
2019-02-19T04:29:59.509Z,78.03
2019-02-19T04:35:02.858Z,69.83
2019-02-19T04:40:06.283Z,148.67
2019-02-19T04:45:09.662Z,83.97
2019-02-19T04:50:13.203Z,70.27
2019-02-19T04:55:16.593Z,127.23
2019-02-19T05:00:20.515Z,87.87
2019-02-19T05:05:24.186Z,71.90
2019-02-19T05:10:27.718Z,87.27
2019-02-19T05:15:30.994Z,69.37
2019-02-19T05:20:34.265Z,97.33
2019-02-19T05:25:37.538Z,68.33
2019-02-19T05:30:42.975Z,74.10
2019-02-19T05:35:45.826Z,87.37
2019-02-19T05:40:49.674Z,93.07
2019-02-19T05:45:53.711Z,60.67
2019-02-19T05:50:57.374Z,101.63
2019-02-19T05:56:01.045Z,74.27
2019-02-19T06:01:04.675Z,92.63
2019-02-19T06:06:08.314Z,88.90
2019-02-19T06:11:11.610Z,140.40
2019-02-19T06:16:14.968Z,213.40
2019-02-19T06:21:18.342Z,137.67
2019-02-19T06:26:21.646Z,91.07
2019-02-19T06:31:25.034Z,154.20
2019-02-19T06:36:28.334Z,140.30
2019-02-19T06:41:31.630Z,214.73
2019-02-19T06:46:34.955Z,363.37
2019-02-19T06:51:38.309Z,206.77
2019-02-19T06:56:41.606Z,205.67
2019-02-19T07:02:10.579Z,193.13
2019-02-19T07:07:13.861Z,320.17
2019-02-19T07:12:17.802Z,277.40
2019-02-19T07:17:21.347Z,253.67
2019-02-19T07:22:24.634Z,242.50
2019-02-19T07:27:27.954Z,261.00
2019-02-19T07:32:31.241Z,288.50
2019-02-19T07:37:34.506Z,433.27
2019-02-19T07:42:37.902Z,428.40
2019-02-19T07:47:41.275Z,432.40
2019-02-19T07:52:44.573Z,416.17
2019-02-19T07:57:47.870Z,651.53
2019-02-19T08:02:51.176Z,601.77
2019-02-19T08:07:54.970Z,517.97
2019-02-19T08:12:58.262Z,537.90
2019-02-19T08:18:01.557Z,802.13
2019-02-19T08:23:04.870Z,716.40
2019-02-19T08:28:08.149Z,863.43
2019-02-19T08:33:11.838Z,710.00
2019-02-19T08:38:15.391Z,984.93
2019-02-19T08:43:18.745Z,854.57
2019-02-19T08:48:22.046Z,910.47
2019-02-19T08:53:25.740Z,999.90
2019-02-19T08:58:29.014Z,918.60
2019-02-19T09:03:32.303Z,999.90
2019-02-19T09:08:35.986Z,905.80
2019-02-19T09:13:39.507Z,999.90
2019-02-19T09:18:42.786Z,950.17
2019-02-19T09:23:46.073Z,952.97
2019-02-19T09:28:49.347Z,999.90
2019-02-19T09:33:52.894Z,999.90
2019-02-19T09:38:56.183Z,999.90
2019-02-19T09:43:59.754Z,988.00
2019-02-19T09:49:03.448Z,999.90
2019-02-19T09:54:06.971Z,999.90
2019-02-19T09:59:10.259Z,999.90
2019-02-19T10:04:13.542Z,999.90
2019-02-19T10:09:16.836Z,999.90
2019-02-19T10:14:20.123Z,999.90
2019-02-19T10:19:23.414Z,999.90
2019-02-19T10:24:26.695Z,999.90
2019-02-19T10:29:30.766Z,999.90
2019-02-19T10:34:34.706Z,999.90
2019-02-19T10:39:37.992Z,999.90
2019-02-19T10:44:41.290Z,999.90
2019-02-19T10:49:45.025Z,999.90
2019-02-19T10:54:48.317Z,999.90
2019-02-19T10:59:51.850Z,999.90
2019-02-19T11:04:55.143Z,999.90
2019-02-19T11:09:59.243Z,999.90
2019-02-19T11:15:06.436Z,999.90
2019-02-19T11:20:10.258Z,999.90
2019-02-19T11:25:14.277Z,999.90
2019-02-19T11:30:17.566Z,999.90
2019-02-19T11:35:20.847Z,999.90
2019-02-19T11:40:24.563Z,999.90
2019-02-19T11:45:28.266Z,999.90
2019-02-19T11:50:32.069Z,999.90
2019-02-19T11:55:35.398Z,999.90
2019-02-19T12:00:40.107Z,999.90
2019-02-19T12:05:43.390Z,999.90
2019-02-19T12:10:46.675Z,999.90
2019-02-19T12:15:49.950Z,999.90
2019-02-19T12:20:53.226Z,999.90
2019-02-19T12:25:56.503Z,999.90
2019-02-19T12:30:59.792Z,999.90
2019-02-19T12:36:03.069Z,999.90
2019-02-19T12:41:06.350Z,999.90
2019-02-19T12:46:09.642Z,999.90
2019-02-19T12:51:13.156Z,999.90
2019-02-19T12:56:16.434Z,999.90
2019-02-19T13:01:19.705Z,999.90
2019-02-19T13:06:23.410Z,999.90
2019-02-19T13:11:26.703Z,999.90
2019-02-19T13:16:29.982Z,999.90
2019-02-19T13:21:33.915Z,999.90
2019-02-19T13:26:37.467Z,999.90
2019-02-19T13:31:41.151Z,999.90
2019-02-19T13:36:45.086Z,999.90
2019-02-19T13:41:48.791Z,999.90
2019-02-19T13:46:52.099Z,999.90
2019-02-19T13:51:58.258Z,999.90
2019-02-19T13:57:01.631Z,999.90
2019-02-19T14:02:04.907Z,972.63
2019-02-19T14:07:08.519Z,982.80
2019-02-19T14:12:11.803Z,999.90
2019-02-19T14:17:17.847Z,997.90
2019-02-19T14:22:41.760Z,999.90
2019-02-19T14:27:58.837Z,999.90
2019-02-19T14:33:39.358Z,999.90
2019-02-19T14:38:53.833Z,941.97
2019-02-19T14:44:16.258Z,999.90
2019-02-19T14:49:47.016Z,999.90
2019-02-19T14:55:01.584Z,932.23
2019-02-19T15:00:27.358Z,999.90
2019-02-19T15:05:48.526Z,999.90
2019-02-19T15:11:06.343Z,953.30
2019-02-19T15:16:35.612Z,798.47
2019-02-19T15:21:55.154Z,861.93
2019-02-19T15:27:11.050Z,785.77
2019-02-19T15:32:29.735Z,877.50
2019-02-19T15:37:52.922Z,662.47
2019-02-19T15:43:04.602Z,575.17
2019-02-19T15:48:36.766Z,554.30
2019-02-19T15:54:02.226Z,550.37
2019-02-19T15:59:17.094Z,690.33
2019-02-19T16:04:45.726Z,889.43
2019-02-19T16:09:55.163Z,920.00
2019-02-19T16:15:35.632Z,707.33
2019-02-19T16:20:46.022Z,791.50
2019-02-19T16:26:00.934Z,737.43
2019-02-19T16:31:32.921Z,711.77
2019-02-19T16:36:53.136Z,777.77
2019-02-19T16:42:07.332Z,692.70
2019-02-19T16:47:22.603Z,739.63
2019-02-19T16:52:30.866Z,876.83
2019-02-19T16:57:42.430Z,828.10
2019-02-19T17:02:53.244Z,729.00
2019-02-19T17:08:01.865Z,857.27
2019-02-19T17:13:17.817Z,931.57
2019-02-19T17:18:29.440Z,614.33
2019-02-19T17:23:40.982Z,999.90
2019-02-19T17:29:02.516Z,803.23
2019-02-19T17:34:24.137Z,703.60
2019-02-19T17:39:32.916Z,734.67
2019-02-19T17:44:54.708Z,756.87
2019-02-19T17:50:11.746Z,944.93
2019-02-19T17:55:27.847Z,921.03
2019-02-19T18:00:37.932Z,852.20
2019-02-19T18:05:59.206Z,964.60
2019-02-19T18:11:11.399Z,736.73
2019-02-19T18:16:23.010Z,999.90
2019-02-19T18:21:26.313Z,892.53
2019-02-19T18:26:29.860Z,999.90
2019-02-19T18:31:33.835Z,890.03
2019-02-19T18:36:37.444Z,999.90
2019-02-19T18:41:41.222Z,999.90
2019-02-19T18:46:44.530Z,999.90
2019-02-19T18:51:48.159Z,999.90
2019-02-19T18:56:51.486Z,999.90
2019-02-19T19:01:55.071Z,999.90
2019-02-19T19:06:58.379Z,999.90
2019-02-19T19:12:01.727Z,999.90
2019-02-19T19:17:05.768Z,930.47
2019-02-19T19:22:09.639Z,999.90
2019-02-19T19:27:12.949Z,999.90
2019-02-19T19:32:16.647Z,999.90
2019-02-19T19:37:19.991Z,990.33
2019-02-19T19:42:23.287Z,918.67
2019-02-19T19:47:26.581Z,982.00
2019-02-19T19:52:29.867Z,999.90
2019-02-19T19:57:33.571Z,999.90
2019-02-19T20:02:36.856Z,966.40
2019-02-19T20:07:40.143Z,999.90
2019-02-19T20:12:43.698Z,999.90
2019-02-19T20:17:47.434Z,999.90
2019-02-19T20:22:51.039Z,999.90
2019-02-19T20:27:54.642Z,952.57
2019-02-19T20:32:58.708Z,999.90
2019-02-19T20:38:02.107Z,999.90
2019-02-19T20:43:05.768Z,999.90
2019-02-19T20:48:09.133Z,999.90
2019-02-19T20:53:12.791Z,999.90
2019-02-19T20:58:16.091Z,982.90
2019-02-19T21:03:19.506Z,930.70
2019-02-19T21:08:23.588Z,996.87
2019-02-19T21:13:27.019Z,999.90
2019-02-19T21:18:31.429Z,970.10
2019-02-19T21:23:34.963Z,999.90
2019-02-19T21:28:38.358Z,999.90
2019-02-19T21:33:41.770Z,999.90
2019-02-19T21:38:45.567Z,999.90
2019-02-19T21:43:48.858Z,990.97
2019-02-19T21:48:52.418Z,999.90
2019-02-19T21:53:55.832Z,999.90
2019-02-19T21:58:59.123Z,999.90
2019-02-19T22:04:02.464Z,952.87
2019-02-19T22:09:06.258Z,979.13
2019-02-19T22:14:09.559Z,999.90
2019-02-19T22:19:12.899Z,999.90
2019-02-19T22:24:34.171Z,967.33
2019-02-19T22:29:38.194Z,991.30
2019-02-19T22:34:42.874Z,999.90
2019-02-19T22:39:47.416Z,999.80
2019-02-19T22:44:51.458Z,963.30
2019-02-19T22:49:55.030Z,970.73
2019-02-19T22:55:26.353Z,949.40
2019-02-19T23:00:58.393Z,999.90
2019-02-19T23:06:02.454Z,999.90
2019-02-19T23:11:06.392Z,999.90
2019-02-19T23:16:09.678Z,999.90
2019-02-19T23:21:12.947Z,999.90
2019-02-19T23:26:16.235Z,998.20
2019-02-19T23:31:19.517Z,999.90
2019-02-19T23:36:30.661Z,999.90
2019-02-19T23:41:33.966Z,999.90
2019-02-19T23:46:37.922Z,947.63
2019-02-19T23:51:41.869Z,999.90
2019-02-19T23:56:45.227Z,962.03
